sensor_id;sensor_type;location;lat;lon;timestamp;temperature;humidity
75819;DHT22;64453;51.944;9.796;2023-01-28T00:00:50;8.10;47.30
75819;DHT22;64453;51.944;9.796;2023-01-28T00:03:17;8.20;46.20
75819;DHT22;64453;51.944;9.796;2023-01-28T00:05:44;8.00;45.60
75819;DHT22;64453;51.944;9.796;2023-01-28T00:08:11;8.10;45.90
75819;DHT22;64453;51.944;9.796;2023-01-28T00:10:39;8.20;46.20
75819;DHT22;64453;51.944;9.796;2023-01-28T00:13:07;8.40;45.70
75819;DHT22;64453;51.944;9.796;2023-01-28T00:15:35;7.80;45.50
75819;DHT22;64453;51.944;9.796;2023-01-28T00:18:05;7.60;46.40
75819;DHT22;64453;51.944;9.796;2023-01-28T00:20:32;7.70;46.80
75819;DHT22;64453;51.944;9.796;2023-01-28T00:22:59;7.90;46.60
75819;DHT22;64453;51.944;9.796;2023-01-28T00:25:26;8.00;46.40
75819;DHT22;64453;51.944;9.796;2023-01-28T00:27:53;7.90;46.10
75819;DHT22;64453;51.944;9.796;2023-01-28T00:30:20;8.00;46.30
75819;DHT22;64453;51.944;9.796;2023-01-28T00:32:47;7.90;46.80
75819;DHT22;64453;51.944;9.796;2023-01-28T00:35:16;7.90;46.50
75819;DHT22;64453;51.944;9.796;2023-01-28T00:37:44;7.90;47.20
75819;DHT22;64453;51.944;9.796;2023-01-28T00:40:12;8.10;46.10
75819;DHT22;64453;51.944;9.796;2023-01-28T00:42:40;8.00;46.40
75819;DHT22;64453;51.944;9.796;2023-01-28T00:45:08;8.00;45.70
75819;DHT22;64453;51.944;9.796;2023-01-28T00:47:35;8.00;46.00
75819;DHT22;64453;51.944;9.796;2023-01-28T00:50:04;8.10;45.70
75819;DHT22;64453;51.944;9.796;2023-01-28T00:52:33;7.90;45.80
75819;DHT22;64453;51.944;9.796;2023-01-28T00:55:00;7.90;46.50
75819;DHT22;64453;51.944;9.796;2023-01-28T00:57:26;8.00;46.20
75819;DHT22;64453;51.944;9.796;2023-01-28T00:59:53;7.60;46.90
75819;DHT22;64453;51.944;9.796;2023-01-28T01:02:20;7.70;46.70
75819;DHT22;64453;51.944;9.796;2023-01-28T01:04:47;7.40;47.50
75819;DHT22;64453;51.944;9.796;2023-01-28T01:07:25;7.60;47.10
75819;DHT22;64453;51.944;9.796;2023-01-28T01:10:01;7.70;46.60
75819;DHT22;64453;51.944;9.796;2023-01-28T01:12:28;7.70;46.50
75819;DHT22;64453;51.944;9.796;2023-01-28T01:14:55;7.90;46.00
75819;DHT22;64453;51.944;9.796;2023-01-28T01:17:22;7.80;46.20
75819;DHT22;64453;51.944;9.796;2023-01-28T01:19:49;8.00;46.30
75819;DHT22;64453;51.944;9.796;2023-01-28T01:22:16;7.90;46.30
75819;DHT22;64453;51.944;9.796;2023-01-28T01:24:43;7.70;46.50
75819;DHT22;64453;51.944;9.796;2023-01-28T01:27:13;7.70;47.30
75819;DHT22;64453;51.944;9.796;2023-01-28T01:29:39;7.50;47.10
75819;DHT22;64453;51.944;9.796;2023-01-28T01:32:06;7.80;46.70
75819;DHT22;64453;51.944;9.796;2023-01-28T01:34:33;7.70;46.60
75819;DHT22;64453;51.944;9.796;2023-01-28T01:37:01;7.70;46.60
75819;DHT22;64453;51.944;9.796;2023-01-28T01:39:30;7.20;46.60
75819;DHT22;64453;51.944;9.796;2023-01-28T01:41:58;7.50;46.90
75819;DHT22;64453;51.944;9.796;2023-01-28T01:44:59;7.70;46.70
75819;DHT22;64453;51.944;9.796;2023-01-28T01:47:32;7.40;46.80
75819;DHT22;64453;51.944;9.796;2023-01-28T01:50:06;7.60;46.80
75819;DHT22;64453;51.944;9.796;2023-01-28T01:52:39;7.70;46.20
75819;DHT22;64453;51.944;9.796;2023-01-28T01:55:11;7.50;46.40
75819;DHT22;64453;51.944;9.796;2023-01-28T01:57:41;7.60;46.40
75819;DHT22;64453;51.944;9.796;2023-01-28T02:00:11;7.40;46.40
75819;DHT22;64453;51.944;9.796;2023-01-28T02:02:41;7.70;46.00
75819;DHT22;64453;51.944;9.796;2023-01-28T02:05:11;7.40;46.30
75819;DHT22;64453;51.944;9.796;2023-01-28T02:07:40;7.60;45.90
75819;DHT22;64453;51.944;9.796;2023-01-28T02:10:10;7.80;45.80
75819;DHT22;64453;51.944;9.796;2023-01-28T02:12:39;7.90;45.30
75819;DHT22;64453;51.944;9.796;2023-01-28T02:15:14;7.50;46.20
75819;DHT22;64453;51.944;9.796;2023-01-28T02:17:43;7.70;45.70
75819;DHT22;64453;51.944;9.796;2023-01-28T02:20:12;7.70;45.20
75819;DHT22;64453;51.944;9.796;2023-01-28T02:23:06;7.60;45.90
75819;DHT22;64453;51.944;9.796;2023-01-28T02:26:15;7.90;45.70
75819;DHT22;64453;51.944;9.796;2023-01-28T02:28:57;7.30;45.70
75819;DHT22;64453;51.944;9.796;2023-01-28T02:31:30;7.40;46.10
75819;DHT22;64453;51.944;9.796;2023-01-28T02:34:07;7.20;45.50
75819;DHT22;64453;51.944;9.796;2023-01-28T02:36:44;7.30;46.70
75819;DHT22;64453;51.944;9.796;2023-01-28T02:39:17;7.30;46.50
75819;DHT22;64453;51.944;9.796;2023-01-28T02:41:51;7.10;46.70
75819;DHT22;64453;51.944;9.796;2023-01-28T02:44:22;7.20;46.60
75819;DHT22;64453;51.944;9.796;2023-01-28T02:46:51;7.00;47.10
75819;DHT22;64453;51.944;9.796;2023-01-28T02:49:39;7.20;46.90
75819;DHT22;64453;51.944;9.796;2023-01-28T02:52:21;7.00;47.10
75819;DHT22;64453;51.944;9.796;2023-01-28T02:55:14;6.50;47.90
75819;DHT22;64453;51.944;9.796;2023-01-28T02:57:52;6.60;47.80
75819;DHT22;64453;51.944;9.796;2023-01-28T03:00:31;6.90;47.60
75819;DHT22;64453;51.944;9.796;2023-01-28T03:03:13;7.30;46.60
75819;DHT22;64453;51.944;9.796;2023-01-28T03:05:44;7.40;46.60
75819;DHT22;64453;51.944;9.796;2023-01-28T03:08:33;6.40;46.80
75819;DHT22;64453;51.944;9.796;2023-01-28T03:11:16;6.70;47.60
75819;DHT22;64453;51.944;9.796;2023-01-28T03:14:01;6.90;47.20
75819;DHT22;64453;51.944;9.796;2023-01-28T03:16:49;7.00;47.40
75819;DHT22;64453;51.944;9.796;2023-01-28T03:19:35;7.10;46.70
75819;DHT22;64453;51.944;9.796;2023-01-28T03:22:20;6.80;47.10
75819;DHT22;64453;51.944;9.796;2023-01-28T03:25:07;7.00;47.20
75819;DHT22;64453;51.944;9.796;2023-01-28T03:27:58;7.40;46.50
75819;DHT22;64453;51.944;9.796;2023-01-28T03:30:47;7.20;46.40
75819;DHT22;64453;51.944;9.796;2023-01-28T03:33:36;7.40;45.50
75819;DHT22;64453;51.944;9.796;2023-01-28T03:36:21;7.60;44.90
75819;DHT22;64453;51.944;9.796;2023-01-28T03:39:05;7.70;45.70
75819;DHT22;64453;51.944;9.796;2023-01-28T03:41:32;7.80;45.50
75819;DHT22;64453;51.944;9.796;2023-01-28T03:43:59;7.50;44.40
75819;DHT22;64453;51.944;9.796;2023-01-28T03:46:43;7.50;44.80
75819;DHT22;64453;51.944;9.796;2023-01-28T03:49:12;7.30;44.40
75819;DHT22;64453;51.944;9.796;2023-01-28T03:51:39;7.50;44.90
75819;DHT22;64453;51.944;9.796;2023-01-28T03:54:05;7.50;44.20
75819;DHT22;64453;51.944;9.796;2023-01-28T03:56:32;7.50;44.00
75819;DHT22;64453;51.944;9.796;2023-01-28T03:59:02;7.30;44.60
75819;DHT22;64453;51.944;9.796;2023-01-28T04:01:29;7.50;44.70
75819;DHT22;64453;51.944;9.796;2023-01-28T04:03:56;7.20;44.70
75819;DHT22;64453;51.944;9.796;2023-01-28T04:06:24;7.40;45.20
75819;DHT22;64453;51.944;9.796;2023-01-28T04:08:51;7.60;45.00
75819;DHT22;64453;51.944;9.796;2023-01-28T04:11:19;7.70;45.00
75819;DHT22;64453;51.944;9.796;2023-01-28T04:13:47;7.80;45.20
75819;DHT22;64453;51.944;9.796;2023-01-28T04:16:16;7.80;44.80
75819;DHT22;64453;51.944;9.796;2023-01-28T04:18:44;7.90;44.90
75819;DHT22;64453;51.944;9.796;2023-01-28T04:21:11;7.90;44.70
75819;DHT22;64453;51.944;9.796;2023-01-28T04:23:40;7.90;45.70
75819;DHT22;64453;51.944;9.796;2023-01-28T04:26:07;7.90;44.80
75819;DHT22;64453;51.944;9.796;2023-01-28T04:28:34;8.00;44.90
75819;DHT22;64453;51.944;9.796;2023-01-28T04:31:01;7.80;44.80
75819;DHT22;64453;51.944;9.796;2023-01-28T04:33:28;8.00;44.40
75819;DHT22;64453;51.944;9.796;2023-01-28T04:35:55;8.00;44.90
75819;DHT22;64453;51.944;9.796;2023-01-28T04:38:22;7.90;45.10
75819;DHT22;64453;51.944;9.796;2023-01-28T04:40:51;7.60;44.10
75819;DHT22;64453;51.944;9.796;2023-01-28T04:43:18;7.70;44.60
75819;DHT22;64453;51.944;9.796;2023-01-28T04:45:46;7.30;44.10
75819;DHT22;64453;51.944;9.796;2023-01-28T04:48:14;7.50;44.20
75819;DHT22;64453;51.944;9.796;2023-01-28T04:50:42;7.60;43.90
75819;DHT22;64453;51.944;9.796;2023-01-28T04:53:10;7.70;43.10
75819;DHT22;64453;51.944;9.796;2023-01-28T04:55:37;7.40;42.50
75819;DHT22;64453;51.944;9.796;2023-01-28T04:58:05;6.90;42.10
75819;DHT22;64453;51.944;9.796;2023-01-28T05:00:33;7.20;42.30
75819;DHT22;64453;51.944;9.796;2023-01-28T05:03:00;7.40;43.20
75819;DHT22;64453;51.944;9.796;2023-01-28T05:05:27;7.50;43.80
75819;DHT22;64453;51.944;9.796;2023-01-28T05:07:57;6.70;44.20
75819;DHT22;64453;51.944;9.796;2023-01-28T05:10:25;6.70;44.80
75819;DHT22;64453;51.944;9.796;2023-01-28T05:12:53;7.20;44.30
75819;DHT22;64453;51.944;9.796;2023-01-28T05:15:22;7.40;44.00
75819;DHT22;64453;51.944;9.796;2023-01-28T05:17:49;7.50;43.30
75819;DHT22;64453;51.944;9.796;2023-01-28T05:20:16;7.30;43.50
75819;DHT22;64453;51.944;9.796;2023-01-28T05:22:43;7.60;42.30
75819;DHT22;64453;51.944;9.796;2023-01-28T05:25:12;7.70;41.60
75819;DHT22;64453;51.944;9.796;2023-01-28T05:27:39;7.80;42.60
75819;DHT22;64453;51.944;9.796;2023-01-28T05:30:07;7.40;41.70
75819;DHT22;64453;51.944;9.796;2023-01-28T05:32:36;7.30;42.40
75819;DHT22;64453;51.944;9.796;2023-01-28T05:35:04;6.80;43.00
75819;DHT22;64453;51.944;9.796;2023-01-28T05:37:31;6.70;43.90
75819;DHT22;64453;51.944;9.796;2023-01-28T05:39:58;7.30;43.40
75819;DHT22;64453;51.944;9.796;2023-01-28T05:42:25;7.50;42.50
75819;DHT22;64453;51.944;9.796;2023-01-28T05:44:52;7.70;42.60
75819;DHT22;64453;51.944;9.796;2023-01-28T05:47:19;7.30;42.10
75819;DHT22;64453;51.944;9.796;2023-01-28T05:49:49;7.00;42.00
75819;DHT22;64453;51.944;9.796;2023-01-28T05:52:15;7.10;42.40
75819;DHT22;64453;51.944;9.796;2023-01-28T05:54:42;7.30;42.50
75819;DHT22;64453;51.944;9.796;2023-01-28T05:57:10;7.40;42.30
75819;DHT22;64453;51.944;9.796;2023-01-28T05:59:37;7.60;43.30
75819;DHT22;64453;51.944;9.796;2023-01-28T06:02:04;7.60;42.60
75819;DHT22;64453;51.944;9.796;2023-01-28T06:04:32;7.80;41.50
75819;DHT22;64453;51.944;9.796;2023-01-28T06:07:00;7.70;41.20
75819;DHT22;64453;51.944;9.796;2023-01-28T06:09:27;7.70;41.40
75819;DHT22;64453;51.944;9.796;2023-01-28T06:11:54;7.70;41.30
75819;DHT22;64453;51.944;9.796;2023-01-28T06:14:21;7.70;42.00
75819;DHT22;64453;51.944;9.796;2023-01-28T06:16:48;7.60;41.20
75819;DHT22;64453;51.944;9.796;2023-01-28T06:19:16;7.00;41.90
75819;DHT22;64453;51.944;9.796;2023-01-28T06:21:43;7.10;42.10
75819;DHT22;64453;51.944;9.796;2023-01-28T06:24:12;7.30;42.20
75819;DHT22;64453;51.944;9.796;2023-01-28T06:26:39;6.90;42.60
75819;DHT22;64453;51.944;9.796;2023-01-28T06:29:06;6.90;43.00
75819;DHT22;64453;51.944;9.796;2023-01-28T06:31:33;7.30;42.70
75819;DHT22;64453;51.944;9.796;2023-01-28T06:34:00;7.00;41.90
75819;DHT22;64453;51.944;9.796;2023-01-28T06:36:27;7.30;42.10
75819;DHT22;64453;51.944;9.796;2023-01-28T06:38:54;7.60;42.90
75819;DHT22;64453;51.944;9.796;2023-01-28T06:41:23;7.70;42.80
75819;DHT22;64453;51.944;9.796;2023-01-28T06:43:50;7.70;42.80
75819;DHT22;64453;51.944;9.796;2023-01-28T06:46:17;7.70;41.50
75819;DHT22;64453;51.944;9.796;2023-01-28T06:48:44;7.80;41.40
75819;DHT22;64453;51.944;9.796;2023-01-28T06:51:11;7.80;41.20
75819;DHT22;64453;51.944;9.796;2023-01-28T06:53:38;7.70;42.00
75819;DHT22;64453;51.944;9.796;2023-01-28T06:56:05;7.70;42.60
75819;DHT22;64453;51.944;9.796;2023-01-28T06:58:34;7.70;42.30
75819;DHT22;64453;51.944;9.796;2023-01-28T07:01:01;7.70;41.50
75819;DHT22;64453;51.944;9.796;2023-01-28T07:03:28;7.80;41.20
75819;DHT22;64453;51.944;9.796;2023-01-28T07:05:55;7.80;40.30
75819;DHT22;64453;51.944;9.796;2023-01-28T07:08:22;7.80;39.90
75819;DHT22;64453;51.944;9.796;2023-01-28T07:10:49;7.70;39.90
75819;DHT22;64453;51.944;9.796;2023-01-28T07:13:16;7.80;40.10
75819;DHT22;64453;51.944;9.796;2023-01-28T07:15:44;7.80;40.00
75819;DHT22;64453;51.944;9.796;2023-01-28T07:18:12;7.80;40.00
75819;DHT22;64453;51.944;9.796;2023-01-28T07:20:39;7.80;40.50
75819;DHT22;64453;51.944;9.796;2023-01-28T07:23:06;7.80;40.30
75819;DHT22;64453;51.944;9.796;2023-01-28T07:25:33;7.80;40.70
75819;DHT22;64453;51.944;9.796;2023-01-28T07:28:01;7.70;41.40
75819;DHT22;64453;51.944;9.796;2023-01-28T07:30:28;7.70;41.50
75819;DHT22;64453;51.944;9.796;2023-01-28T07:32:58;7.80;41.40
75819;DHT22;64453;51.944;9.796;2023-01-28T07:35:25;7.80;41.00
75819;DHT22;64453;51.944;9.796;2023-01-28T07:37:53;7.70;39.70
75819;DHT22;64453;51.944;9.796;2023-01-28T07:40:22;7.70;40.20
75819;DHT22;64453;51.944;9.796;2023-01-28T07:42:49;7.90;40.40
75819;DHT22;64453;51.944;9.796;2023-01-28T07:45:17;7.80;40.40
75819;DHT22;64453;51.944;9.796;2023-01-28T07:47:51;7.80;40.20
75819;DHT22;64453;51.944;9.796;2023-01-28T07:50:21;7.90;40.30
75819;DHT22;64453;51.944;9.796;2023-01-28T07:52:48;7.90;40.60
75819;DHT22;64453;51.944;9.796;2023-01-28T07:55:15;7.80;40.70
75819;DHT22;64453;51.944;9.796;2023-01-28T07:57:50;7.70;40.50
75819;DHT22;64453;51.944;9.796;2023-01-28T08:00:19;7.80;39.90
75819;DHT22;64453;51.944;9.796;2023-01-28T08:02:46;7.80;39.80
75819;DHT22;64453;51.944;9.796;2023-01-28T08:05:15;7.70;40.00
75819;DHT22;64453;51.944;9.796;2023-01-28T08:07:45;7.80;40.00
75819;DHT22;64453;51.944;9.796;2023-01-28T08:10:14;7.80;40.40
75819;DHT22;64453;51.944;9.796;2023-01-28T08:12:50;7.80;40.40
75819;DHT22;64453;51.944;9.796;2023-01-28T08:15:17;7.90;40.60
75819;DHT22;64453;51.944;9.796;2023-01-28T08:17:44;7.90;40.30
75819;DHT22;64453;51.944;9.796;2023-01-28T08:20:12;7.90;40.00
75819;DHT22;64453;51.944;9.796;2023-01-28T08:22:39;7.90;39.90
75819;DHT22;64453;51.944;9.796;2023-01-28T08:25:09;7.80;39.90
75819;DHT22;64453;51.944;9.796;2023-01-28T08:27:36;7.80;40.30
75819;DHT22;64453;51.944;9.796;2023-01-28T08:30:04;7.90;39.80
75819;DHT22;64453;51.944;9.796;2023-01-28T08:32:34;7.90;40.00
75819;DHT22;64453;51.944;9.796;2023-01-28T08:35:01;7.80;39.70
75819;DHT22;64453;51.944;9.796;2023-01-28T08:37:28;7.80;39.90
75819;DHT22;64453;51.944;9.796;2023-01-28T08:39:55;8.00;39.60
75819;DHT22;64453;51.944;9.796;2023-01-28T08:42:24;7.90;39.70
75819;DHT22;64453;51.944;9.796;2023-01-28T08:44:51;7.50;39.30
75819;DHT22;64453;51.944;9.796;2023-01-28T08:47:18;7.80;39.70
75819;DHT22;64453;51.944;9.796;2023-01-28T08:49:45;7.80;39.90
75819;DHT22;64453;51.944;9.796;2023-01-28T08:52:12;7.60;39.40
75819;DHT22;64453;51.944;9.796;2023-01-28T08:54:39;7.50;39.30
75819;DHT22;64453;51.944;9.796;2023-01-28T08:57:06;7.00;39.90
75819;DHT22;64453;51.944;9.796;2023-01-28T08:59:34;7.10;41.40
75819;DHT22;64453;51.944;9.796;2023-01-28T09:02:05;7.50;39.80
75819;DHT22;64453;51.944;9.796;2023-01-28T09:04:32;7.50;39.30
75819;DHT22;64453;51.944;9.796;2023-01-28T09:06:59;7.30;39.50
75819;DHT22;64453;51.944;9.796;2023-01-28T09:09:26;7.60;39.10
75819;DHT22;64453;51.944;9.796;2023-01-28T09:11:53;7.70;39.10
75819;DHT22;64453;51.944;9.796;2023-01-28T09:14:22;7.50;39.20
75819;DHT22;64453;51.944;9.796;2023-01-28T09:16:50;7.60;39.60
75819;DHT22;64453;51.944;9.796;2023-01-28T09:19:17;7.20;40.20
75819;DHT22;64453;51.944;9.796;2023-01-28T09:21:44;7.40;40.30
75819;DHT22;64453;51.944;9.796;2023-01-28T09:24:11;7.40;40.50
75819;DHT22;64453;51.944;9.796;2023-01-28T09:26:38;7.30;40.00
75819;DHT22;64453;51.944;9.796;2023-01-28T09:29:05;7.40;39.50
75819;DHT22;64453;51.944;9.796;2023-01-28T09:31:32;7.30;40.10
75819;DHT22;64453;51.944;9.796;2023-01-28T09:34:00;7.30;40.90
75819;DHT22;64453;51.944;9.796;2023-01-28T09:36:29;7.40;40.70
75819;DHT22;64453;51.944;9.796;2023-01-28T09:38:57;7.30;39.90
75819;DHT22;64453;51.944;9.796;2023-01-28T09:41:26;7.20;40.50
75819;DHT22;64453;51.944;9.796;2023-01-28T09:44:06;7.40;40.10
75819;DHT22;64453;51.944;9.796;2023-01-28T09:46:43;7.60;38.90
75819;DHT22;64453;51.944;9.796;2023-01-28T09:49:18;6.80;38.60
75819;DHT22;64453;51.944;9.796;2023-01-28T09:51:50;6.80;39.80
75819;DHT22;64453;51.944;9.796;2023-01-28T09:54:25;6.70;40.90
75819;DHT22;64453;51.944;9.796;2023-01-28T09:57:01;6.50;40.30
75819;DHT22;64453;51.944;9.796;2023-01-28T09:59:32;6.80;40.70
75819;DHT22;64453;51.944;9.796;2023-01-28T10:02:10;6.90;41.20
75819;DHT22;64453;51.944;9.796;2023-01-28T10:04:57;6.60;40.90
75819;DHT22;64453;51.944;9.796;2023-01-28T10:07:33;7.10;40.20
75819;DHT22;64453;51.944;9.796;2023-01-28T10:10:08;7.50;39.80
75819;DHT22;64453;51.944;9.796;2023-01-28T10:13:06;7.40;39.80
75819;DHT22;64453;51.944;9.796;2023-01-28T10:15:48;6.30;40.50
75819;DHT22;64453;51.944;9.796;2023-01-28T10:18:27;6.30;41.60
75819;DHT22;64453;51.944;9.796;2023-01-28T10:21:03;6.30;41.30
75819;DHT22;64453;51.944;9.796;2023-01-28T10:23:45;5.80;43.10
75819;DHT22;64453;51.944;9.796;2023-01-28T10:26:23;6.30;42.10
75819;DHT22;64453;51.944;9.796;2023-01-28T10:28:55;6.40;41.10
75819;DHT22;64453;51.944;9.796;2023-01-28T10:31:29;6.90;40.70
75819;DHT22;64453;51.944;9.796;2023-01-28T10:33:58;7.10;40.50
75819;DHT22;64453;51.944;9.796;2023-01-28T10:36:28;6.20;39.90
75819;DHT22;64453;51.944;9.796;2023-01-28T10:38:55;6.60;40.30
75819;DHT22;64453;51.944;9.796;2023-01-28T10:41:22;6.50;41.00
75819;DHT22;64453;51.944;9.796;2023-01-28T10:43:51;6.40;41.00
75819;DHT22;64453;51.944;9.796;2023-01-28T10:46:21;6.80;40.60
75819;DHT22;64453;51.944;9.796;2023-01-28T10:48:55;6.70;41.50
75819;DHT22;64453;51.944;9.796;2023-01-28T10:51:35;6.80;41.70
75819;DHT22;64453;51.944;9.796;2023-01-28T10:54:12;6.80;41.30
75819;DHT22;64453;51.944;9.796;2023-01-28T10:56:44;6.50;41.80
75819;DHT22;64453;51.944;9.796;2023-01-28T10:59:19;6.80;41.60
75819;DHT22;64453;51.944;9.796;2023-01-28T11:01:49;7.10;41.70
75819;DHT22;64453;51.944;9.796;2023-01-28T11:04:22;6.90;40.20
75819;DHT22;64453;51.944;9.796;2023-01-28T11:07:00;6.30;40.70
75819;DHT22;64453;51.944;9.796;2023-01-28T11:09:29;6.70;42.20
75819;DHT22;64453;51.944;9.796;2023-01-28T11:11:58;7.10;40.80
75819;DHT22;64453;51.944;9.796;2023-01-28T11:14:36;7.40;40.40
75819;DHT22;64453;51.944;9.796;2023-01-28T11:17:03;7.50;40.10
75819;DHT22;64453;51.944;9.796;2023-01-28T11:19:34;7.70;39.30
75819;DHT22;64453;51.944;9.796;2023-01-28T11:22:03;7.70;39.60
75819;DHT22;64453;51.944;9.796;2023-01-28T11:24:31;7.30;39.50
75819;DHT22;64453;51.944;9.796;2023-01-28T11:27:10;7.10;39.30
75819;DHT22;64453;51.944;9.796;2023-01-28T11:29:41;7.20;39.80
75819;DHT22;64453;51.944;9.796;2023-01-28T11:32:16;7.50;40.00
75819;DHT22;64453;51.944;9.796;2023-01-28T11:34:49;7.70;39.60
75819;DHT22;64453;51.944;9.796;2023-01-28T11:37:20;7.80;39.10
75819;DHT22;64453;51.944;9.796;2023-01-28T11:39:48;7.80;39.30
75819;DHT22;64453;51.944;9.796;2023-01-28T11:42:26;7.90;38.10
75819;DHT22;64453;51.944;9.796;2023-01-28T11:44:53;7.80;38.40
75819;DHT22;64453;51.944;9.796;2023-01-28T11:47:41;7.90;38.30
75819;DHT22;64453;51.944;9.796;2023-01-28T11:50:23;7.90;38.30
75819;DHT22;64453;51.944;9.796;2023-01-28T11:53:02;8.00;38.30
75819;DHT22;64453;51.944;9.796;2023-01-28T11:55:52;8.00;38.90
75819;DHT22;64453;51.944;9.796;2023-01-28T11:58:35;7.90;38.80
75819;DHT22;64453;51.944;9.796;2023-01-28T12:01:11;6.80;39.10
75819;DHT22;64453;51.944;9.796;2023-01-28T12:03:47;6.80;39.80
75819;DHT22;64453;51.944;9.796;2023-01-28T12:06:38;7.10;39.40
75819;DHT22;64453;51.944;9.796;2023-01-28T12:09:18;7.10;39.20
75819;DHT22;64453;51.944;9.796;2023-01-28T12:12:06;7.20;40.00
75819;DHT22;64453;51.944;9.796;2023-01-28T12:15:01;7.40;40.00
75819;DHT22;64453;51.944;9.796;2023-01-28T12:17:43;7.60;39.90
75819;DHT22;64453;51.944;9.796;2023-01-28T12:20:19;7.40;40.00
75819;DHT22;64453;51.944;9.796;2023-01-28T12:23:08;6.90;40.80
75819;DHT22;64453;51.944;9.796;2023-01-28T12:26:04;7.00;40.70
75819;DHT22;64453;51.944;9.796;2023-01-28T12:28:47;6.90;40.20
75819;DHT22;64453;51.944;9.796;2023-01-28T12:31:34;6.90;39.40
75819;DHT22;64453;51.944;9.796;2023-01-28T12:37:26;7.30;38.20
75819;DHT22;64453;51.944;9.796;2023-01-28T12:40:09;6.90;38.90
75819;DHT22;64453;51.944;9.796;2023-01-28T12:42:47;7.20;40.20
75819;DHT22;64453;51.944;9.796;2023-01-28T12:45:20;7.40;39.90
75819;DHT22;64453;51.944;9.796;2023-01-28T12:47:54;7.60;39.60
75819;DHT22;64453;51.944;9.796;2023-01-28T12:50:27;7.90;39.60
75819;DHT22;64453;51.944;9.796;2023-01-28T12:53:00;8.00;38.70
75819;DHT22;64453;51.944;9.796;2023-01-28T12:55:37;8.20;38.20
75819;DHT22;64453;51.944;9.796;2023-01-28T12:58:13;8.10;38.20
75819;DHT22;64453;51.944;9.796;2023-01-28T13:00:47;8.10;38.80
75819;DHT22;64453;51.944;9.796;2023-01-28T13:03:20;8.40;38.60
75819;DHT22;64453;51.944;9.796;2023-01-28T13:05:54;8.40;38.00
75819;DHT22;64453;51.944;9.796;2023-01-28T13:08:26;8.40;37.40
75819;DHT22;64453;51.944;9.796;2023-01-28T13:10:56;8.40;37.80
75819;DHT22;64453;51.944;9.796;2023-01-28T13:13:29;8.60;37.90
75819;DHT22;64453;51.944;9.796;2023-01-28T13:15:58;8.50;37.90
75819;DHT22;64453;51.944;9.796;2023-01-28T13:18:32;8.30;36.90
75819;DHT22;64453;51.944;9.796;2023-01-28T13:21:02;8.40;37.90
75819;DHT22;64453;51.944;9.796;2023-01-28T13:23:38;8.30;37.50
75819;DHT22;64453;51.944;9.796;2023-01-28T13:26:29;8.30;37.30
75819;DHT22;64453;51.944;9.796;2023-01-28T13:29:17;8.30;36.50
75819;DHT22;64453;51.944;9.796;2023-01-28T13:31:56;8.30;38.00
75819;DHT22;64453;51.944;9.796;2023-01-28T13:34:34;8.30;38.00
75819;DHT22;64453;51.944;9.796;2023-01-28T13:37:06;8.30;37.80
75819;DHT22;64453;51.944;9.796;2023-01-28T13:39:46;8.40;37.50
75819;DHT22;64453;51.944;9.796;2023-01-28T13:42:24;8.20;37.20
75819;DHT22;64453;51.944;9.796;2023-01-28T13:44:54;8.40;37.30
75819;DHT22;64453;51.944;9.796;2023-01-28T13:47:26;8.20;37.00
75819;DHT22;64453;51.944;9.796;2023-01-28T13:49:57;8.30;37.70
75819;DHT22;64453;51.944;9.796;2023-01-28T13:52:28;8.40;38.10
75819;DHT22;64453;51.944;9.796;2023-01-28T13:55:01;8.40;37.80
75819;DHT22;64453;51.944;9.796;2023-01-28T14:01:06;7.50;36.80
75819;DHT22;64453;51.944;9.796;2023-01-28T14:04:20;7.70;37.90
75819;DHT22;64453;51.944;9.796;2023-01-28T14:10:32;7.10;38.00
75819;DHT22;64453;51.944;9.796;2023-01-28T14:13:34;6.70;38.80
75819;DHT22;64453;51.944;9.796;2023-01-28T14:16:41;7.30;38.80
75819;DHT22;64453;51.944;9.796;2023-01-28T14:19:19;7.70;37.80
75819;DHT22;64453;51.944;9.796;2023-01-28T14:21:52;7.80;37.60
75819;DHT22;64453;51.944;9.796;2023-01-28T14:24:19;7.80;37.40
75819;DHT22;64453;51.944;9.796;2023-01-28T14:26:54;7.90;37.80
75819;DHT22;64453;51.944;9.796;2023-01-28T14:29:49;7.60;37.30
75819;DHT22;64453;51.944;9.796;2023-01-28T14:32:25;7.70;37.30
75819;DHT22;64453;51.944;9.796;2023-01-28T14:34:54;7.30;38.00
75819;DHT22;64453;51.944;9.796;2023-01-28T14:37:24;7.50;38.10
75819;DHT22;64453;51.944;9.796;2023-01-28T14:39:57;7.40;38.40
75819;DHT22;64453;51.944;9.796;2023-01-28T14:42:27;6.80;39.80
75819;DHT22;64453;51.944;9.796;2023-01-28T14:45:12;6.80;39.90
75819;DHT22;64453;51.944;9.796;2023-01-28T14:48:04;7.00;39.70
75819;DHT22;64453;51.944;9.796;2023-01-28T14:50:49;7.00;39.20
75819;DHT22;64453;51.944;9.796;2023-01-28T14:53:42;7.50;38.10
75819;DHT22;64453;51.944;9.796;2023-01-28T14:56:24;7.80;37.90
75819;DHT22;64453;51.944;9.796;2023-01-28T14:58:59;7.90;37.80
75819;DHT22;64453;51.944;9.796;2023-01-28T15:01:30;8.00;37.80
75819;DHT22;64453;51.944;9.796;2023-01-28T15:03:59;7.90;37.50
75819;DHT22;64453;51.944;9.796;2023-01-28T15:06:32;8.10;37.70
75819;DHT22;64453;51.944;9.796;2023-01-28T15:09:11;8.50;37.40
75819;DHT22;64453;51.944;9.796;2023-01-28T15:11:41;8.60;37.30
75819;DHT22;64453;51.944;9.796;2023-01-28T15:14:14;8.50;37.10
75819;DHT22;64453;51.944;9.796;2023-01-28T15:16:48;8.10;37.30
75819;DHT22;64453;51.944;9.796;2023-01-28T15:19:25;8.00;37.60
75819;DHT22;64453;51.944;9.796;2023-01-28T15:21:54;7.90;37.10
75819;DHT22;64453;51.944;9.796;2023-01-28T15:24:22;7.50;39.20
75819;DHT22;64453;51.944;9.796;2023-01-28T15:26:49;7.40;40.10
75819;DHT22;64453;51.944;9.796;2023-01-28T15:29:23;7.30;40.30
75819;DHT22;64453;51.944;9.796;2023-01-28T15:31:51;7.50;39.90
75819;DHT22;64453;51.944;9.796;2023-01-28T15:34:20;7.30;40.00
75819;DHT22;64453;51.944;9.796;2023-01-28T15:36:48;6.80;42.30
75819;DHT22;64453;51.944;9.796;2023-01-28T15:39:16;7.30;41.80
75819;DHT22;64453;51.944;9.796;2023-01-28T15:41:48;7.70;40.70
75819;DHT22;64453;51.944;9.796;2023-01-28T15:44:26;7.70;40.80
75819;DHT22;64453;51.944;9.796;2023-01-28T15:46:55;7.50;40.80
75819;DHT22;64453;51.944;9.796;2023-01-28T15:49:27;7.60;40.90
75819;DHT22;64453;51.944;9.796;2023-01-28T15:51:59;7.80;40.10
75819;DHT22;64453;51.944;9.796;2023-01-28T15:54:27;7.90;39.70
75819;DHT22;64453;51.944;9.796;2023-01-28T15:56:55;7.90;40.00
75819;DHT22;64453;51.944;9.796;2023-01-28T15:59:25;7.70;39.90
75819;DHT22;64453;51.944;9.796;2023-01-28T16:02:19;7.70;40.00
75819;DHT22;64453;51.944;9.796;2023-01-28T16:04:59;7.60;40.10
75819;DHT22;64453;51.944;9.796;2023-01-28T16:07:28;7.10;41.20
75819;DHT22;64453;51.944;9.796;2023-01-28T16:09:58;6.90;41.30
75819;DHT22;64453;51.944;9.796;2023-01-28T16:12:26;7.00;41.20
75819;DHT22;64453;51.944;9.796;2023-01-28T16:14:56;7.00;42.50
75819;DHT22;64453;51.944;9.796;2023-01-28T16:17:27;7.30;42.60
75819;DHT22;64453;51.944;9.796;2023-01-28T16:19:59;6.50;44.10
75819;DHT22;64453;51.944;9.796;2023-01-28T16:22:32;6.50;44.20
75819;DHT22;64453;51.944;9.796;2023-01-28T16:25:01;7.00;42.90
75819;DHT22;64453;51.944;9.796;2023-01-28T16:27:29;6.80;43.70